Time;durP1;ratioP1;P1;durP2;ratioP2;P2;SDS_P1;SDS_P2;PMS_P1;PMS_P2;Temp;Humidity;BMP_temperature;BMP_pressure;BME280_temperature;BME280_humidity;BME280_pressure;Samples;Min_cycle;Max_cycle;Signal;HPM_P1;HPM_P2
2022/04/03 00:01:17;;;;;;;2.63;1.30;;;0.40;99.90;;;;;;5066187;28;20041;-81
2022/04/03 00:03:43;;;;;;;1.30;1.20;;;1.50;99.90;;;;;;5043586;28;20521;-80
2022/04/03 00:06:09;;;;;;;1.20;1.15;;;0.30;99.90;;;;;;5021487;28;20040;-78
2022/04/03 00:08:34;;;;;;;1.30;1.20;;;0.40;99.90;;;;;;5071755;28;20210;-79
2022/04/03 00:11:00;;;;;;;1.30;1.20;;;0.30;99.90;;;;;;5052846;28;20040;-79
2022/04/03 00:13:26;;;;;;;1.88;1.75;;;0.30;99.90;;;;;;5038834;28;20040;-80
2022/04/03 00:15:52;;;;;;;;;;;0.20;99.90;;;;;;5067378;28;20040;-79
2022/04/03 00:18:18;;;;;;;1.40;1.30;;;0.20;99.90;;;;;;5072645;28;20402;-79
2022/04/03 00:20:44;;;;;;;1.40;1.30;;;1.20;99.90;;;;;;5054873;28;20436;-79
2022/04/03 00:23:10;;;;;;;;;;;0.60;99.90;;;;;;5062272;28;20052;-79
2022/04/03 00:25:36;;;;;;;4.63;1.58;;;0.40;99.90;;;;;;5045210;28;20267;-78
2022/04/03 00:28:02;;;;;;;1.77;1.67;;;0.20;99.90;;;;;;5073323;28;20098;-79
2022/04/03 00:30:28;;;;;;;1.00;1.00;;;0.20;99.90;;;;;;5070457;28;20033;-80
2022/04/03 00:32:54;;;;;;;2.22;2.00;;;0.20;99.90;;;;;;5072008;28;20044;-78
2022/04/03 00:35:20;;;;;;;1.70;1.60;;;0.10;99.90;;;;;;5072570;28;20061;-79
2022/04/03 00:37:46;;;;;;;0.98;0.95;;;0.10;99.90;;;;;;5055492;28;20393;-80
2022/04/03 00:40:13;;;;;;;1.10;1.00;;;0.10;99.90;;;;;;5073155;28;20054;-80
2022/04/03 00:42:39;;;;;;;1.65;1.55;;;0.10;99.90;;;;;;5059366;28;20049;-80
2022/04/03 00:45:06;;;;;;;1.67;1.58;;;0.00;99.90;;;;;;5064346;28;20040;-80
2022/04/03 00:47:32;;;;;;;2.53;1.73;;;0.00;99.90;;;;;;5056259;28;20044;-81
2022/04/03 00:49:58;;;;;;;2.17;1.80;;;0.00;99.90;;;;;;5061732;28;20041;-79
2022/04/03 00:52:24;;;;;;;1.15;1.10;;;-0.10;99.90;;;;;;5064232;28;20129;-79
2022/04/03 00:54:51;;;;;;;1.52;1.42;;;-0.20;99.90;;;;;;5067651;28;20117;-80
2022/04/03 00:57:18;;;;;;;1.52;1.38;;;-0.30;99.90;;;;;;5071348;28;20123;-80
2022/04/03 00:59:44;;;;;;;1.65;1.55;;;0.80;99.90;;;;;;5073949;28;20051;-82
2022/04/03 01:02:11;;;;;;;;;;;-0.50;99.90;;;;;;5066580;28;20037;-80
2022/04/03 01:04:39;;;;;;;1.45;1.35;;;-0.50;99.90;;;;;;5060794;28;19920;-80
2022/04/03 01:07:06;;;;;;;1.17;1.10;;;-0.50;99.90;;;;;;5035956;28;20045;-81
2022/04/03 01:09:32;;;;;;;3.22;1.30;;;-0.60;99.90;;;;;;5050736;28;20155;-80
2022/04/03 01:11:58;;;;;;;2.38;2.05;;;0.30;99.90;;;;;;5055022;28;20049;-81
2022/04/03 01:14:36;;;;;;;1.33;1.23;;;-0.60;99.90;;;;;;5055975;28;20089;-80
2022/04/03 01:17:03;;;;;;;1.60;1.50;;;-0.60;99.90;;;;;;5053160;28;20562;-79
2022/04/03 01:19:31;;;;;;;1.33;1.23;;;-0.60;99.90;;;;;;5055512;28;20048;-79
2022/04/03 01:21:57;;;;;;;1.40;1.30;;;-0.60;99.90;;;;;;5072071;28;20052;-79
2022/04/03 01:24:23;;;;;;;;;;;-0.60;99.90;;;;;;5072910;28;20497;-80
2022/04/03 01:26:49;;;;;;;3.30;1.85;;;-0.30;99.90;;;;;;5072760;28;19959;-79
2022/04/03 01:29:18;;;;;;;2.05;1.77;;;-0.50;99.90;;;;;;5044880;28;20040;-77
2022/04/03 01:31:45;;;;;;;2.25;1.67;;;-0.30;99.90;;;;;;5061110;28;20041;-79
2022/04/03 01:34:11;;;;;;;1.90;1.77;;;-0.30;99.90;;;;;;5051018;28;20036;-78
2022/04/03 01:36:37;;;;;;;1.52;1.42;;;-0.30;99.90;;;;;;5066869;28;20033;-79
2022/04/03 01:39:03;;;;;;;1.40;1.30;;;0.40;99.90;;;;;;5030583;28;20544;-79
2022/04/03 01:41:29;;;;;;;2.17;1.33;;;-0.20;99.90;;;;;;5051355;28;20052;-79
2022/04/03 01:43:54;;;;;;;1.67;1.58;;;-0.20;99.90;;;;;;5054519;28;20036;-80
2022/04/03 01:46:20;;;;;;;2.20;2.00;;;-0.10;99.90;;;;;;5038514;28;20151;-80
2022/04/03 01:48:46;;;;;;;1.35;1.25;;;1.10;99.90;;;;;;5064416;28;20095;-79
2022/04/03 01:51:12;;;;;;;1.63;1.52;;;0.10;99.90;;;;;;5054010;28;20037;-81
2022/04/03 01:53:38;;;;;;;1.52;1.42;;;0.20;99.90;;;;;;5039769;28;20044;-80
2022/04/03 01:56:06;;;;;;;1.58;1.20;;;0.20;99.90;;;;;;5072302;28;20385;-81
2022/04/03 01:58:32;;;;;;;1.20;1.10;;;0.30;99.90;;;;;;5054974;28;20045;-79
2022/04/03 02:00:58;;;;;;;1.48;1.33;;;0.30;99.90;;;;;;5051595;28;20449;-80
2022/04/03 02:03:24;;;;;;;;;;;1.10;99.90;;;;;;5049764;28;20067;-80
2022/04/03 02:05:50;;;;;;;1.80;1.38;;;1.70;99.90;;;;;;5069498;28;20003;-79
2022/04/03 02:08:15;;;;;;;1.60;1.50;;;0.50;99.90;;;;;;5070422;28;20398;-79
2022/04/03 02:10:42;;;;;;;2.08;1.63;;;0.60;99.90;;;;;;5054836;28;20459;-79
2022/04/03 02:13:08;;;;;;;2.05;1.52;;;1.40;99.90;;;;;;5074423;28;20048;-80
2022/04/03 02:15:34;;;;;;;2.38;1.55;;;0.80;99.90;;;;;;5054937;28;20037;-78
2022/04/03 02:18:00;;;;;;;1.23;1.13;;;1.60;99.90;;;;;;5054549;28;20082;-79
2022/04/03 02:20:26;;;;;;;1.15;1.13;;;0.90;99.90;;;;;;5050728;28;20075;-79
2022/04/03 02:22:51;;;;;;;1.77;1.27;;;0.90;99.90;;;;;;5041703;28;20087;-80
2022/04/03 02:25:24;;;;;;;1.80;1.30;;;1.00;99.90;;;;;;5055770;28;20038;-79
2022/04/03 02:27:52;;;;;;;6.15;1.63;;;1.00;99.90;;;;;;5062236;28;20040;-80
2022/04/03 02:30:18;;;;;;;4.75;1.35;;;1.30;99.90;;;;;;5062169;28;20102;-80
2022/04/03 02:32:45;;;;;;;1.42;1.33;;;2.10;99.90;;;;;;5070600;28;20102;-79
2022/04/03 02:35:12;;;;;;;1.85;1.33;;;1.80;99.90;;;;;;5053559;28;20040;-79
2022/04/03 02:37:40;;;;;;;1.45;1.35;;;1.20;99.90;;;;;;5053611;28;20049;-79
2022/04/03 02:40:10;;;;;;;1.02;0.80;;;1.20;99.90;;;;;;5058004;28;20055;-80
2022/04/03 02:42:36;;;;;;;1.40;1.30;;;1.30;99.90;;;;;;5071355;28;20043;-79
2022/04/03 02:45:04;;;;;;;1.20;1.10;;;1.90;99.90;;;;;;5055552;28;20032;-79
2022/04/03 02:47:31;;;;;;;0.88;0.88;;;1.30;99.90;;;;;;5045394;28;20041;-78
2022/04/03 02:49:57;;;;;;;1.67;1.58;;;1.40;99.90;;;;;;5081072;28;20044;-79
2022/04/03 02:52:23;;;;;;;1.23;1.13;;;1.90;99.90;;;;;;5060980;28;20048;-78
2022/04/03 02:54:49;;;;;;;0.90;0.90;;;1.30;99.90;;;;;;5067806;28;20087;-79
2022/04/03 02:57:16;;;;;;;1.20;1.10;;;1.20;99.90;;;;;;5016695;28;20135;-79
2022/04/03 02:59:42;;;;;;;0.70;0.70;;;2.00;99.90;;;;;;5070857;28;20044;-79
2022/04/03 03:02:08;;;;;;;0.75;0.75;;;1.80;99.90;;;;;;5070566;28;20052;-79
2022/04/03 03:04:37;;;;;;;0.88;0.88;;;0.90;99.90;;;;;;5052141;28;20050;-79
2022/04/03 03:07:11;;;;;;;0.90;0.90;;;1.10;99.90;;;;;;5075423;28;20056;-78
2022/04/03 03:09:37;;;;;;;0.90;0.90;;;0.80;99.90;;;;;;5039006;28;20044;-77
2022/04/03 03:12:03;;;;;;;2.03;0.98;;;0.90;99.90;;;;;;5030716;28;20044;-79
2022/04/03 03:14:29;;;;;;;1.00;1.00;;;0.80;99.90;;;;;;5052415;28;20389;-80
2022/04/03 03:16:57;;;;;;;1.30;1.20;;;0.80;99.90;;;;;;5016845;28;20065;-78
2022/04/03 03:19:23;;;;;;;5.25;1.13;;;0.70;99.90;;;;;;5062675;28;20409;-79
2022/04/03 03:21:53;;;;;;;1.08;1.08;;;0.70;99.90;;;;;;5068319;28;20051;-78
2022/04/03 03:24:20;;;;;;;0.80;0.80;;;0.70;99.90;;;;;;5009029;28;20408;-79
2022/04/03 03:26:46;;;;;;;0.77;0.77;;;0.70;99.90;;;;;;5073856;28;20093;-77
2022/04/03 03:29:12;;;;;;;1.10;1.00;;;1.00;99.90;;;;;;5036576;28;20039;-80
2022/04/03 03:31:39;;;;;;;1.00;1.00;;;0.70;99.90;;;;;;5066753;28;20044;-78
2022/04/03 03:34:05;;;;;;;1.05;0.95;;;0.70;99.90;;;;;;5052833;28;20048;-79
2022/04/03 03:36:34;;;;;;;0.95;0.95;;;0.70;99.90;;;;;;5046076;28;20036;-78
2022/04/03 03:39:00;;;;;;;0.60;0.60;;;1.50;99.90;;;;;;5069810;28;20066;-79
2022/04/03 03:41:25;;;;;;;1.20;1.10;;;0.80;99.90;;;;;;5051561;28;20056;-81
2022/04/03 03:43:57;;;;;;;1.10;1.10;;;0.70;99.90;;;;;;5041269;28;20197;-78
2022/04/03 03:46:23;;;;;;;1.00;1.00;;;0.70;99.90;;;;;;5052840;28;20529;-79
2022/04/03 03:48:48;;;;;;;0.90;0.90;;;0.70;99.90;;;;;;5040319;28;20478;-78
2022/04/03 03:51:14;;;;;;;1.73;1.17;;;0.60;99.90;;;;;;5057056;28;20040;-80
2022/04/03 03:53:40;;;;;;;0.82;0.82;;;1.70;99.90;;;;;;5036661;28;20487;-80
2022/04/03 03:56:07;;;;;;;1.23;1.13;;;0.50;99.90;;;;;;5052258;28;20036;-78
2022/04/03 03:58:33;;;;;;;0.90;0.90;;;0.40;99.90;;;;;;5052129;28;20098;-78
2022/04/03 04:00:59;;;;;;;0.95;0.90;;;0.50;99.90;;;;;;5034087;28;20116;-78
2022/04/03 04:03:25;;;;;;;1.40;1.30;;;0.40;99.90;;;;;;5057423;28;20480;-79
2022/04/03 04:05:51;;;;;;;0.90;0.90;;;0.30;99.90;;;;;;5072050;28;20270;-77
2022/04/03 04:08:22;;;;;;;2.63;1.30;;;0.30;99.90;;;;;;4995553;28;1115654;-79
2022/04/03 04:10:48;;;;;;;0.85;0.85;;;0.40;99.90;;;;;;5065267;28;20043;-78
2022/04/03 04:13:14;;;;;;;1.17;1.05;;;1.60;99.90;;;;;;5052698;28;20052;-79
2022/04/03 04:15:39;;;;;;;0.95;0.95;;;0.40;99.90;;;;;;5070565;28;20119;-78
2022/04/03 04:18:05;;;;;;;;;;;0.50;99.90;;;;;;5069555;28;20842;-78
2022/04/03 04:20:32;;;;;;;1.50;1.40;;;0.50;99.90;;;;;;5069823;28;19920;-79
2022/04/03 04:22:59;;;;;;;1.02;0.95;;;1.30;99.90;;;;;;5035743;28;20040;-78
2022/04/03 04:25:24;;;;;;;2.90;1.83;;;0.40;99.90;;;;;;5034765;28;20124;-79
2022/04/03 04:27:50;;;;;;;1.35;1.25;;;0.40;99.90;;;;;;5069605;28;20057;-78
2022/04/03 04:30:17;;;;;;;1.00;1.00;;;0.40;99.90;;;;;;5053203;28;20479;-79
2022/04/03 04:32:45;;;;;;;2.08;1.30;;;0.40;99.90;;;;;;5048950;28;20486;-78
2022/04/03 04:35:11;;;;;;;1.95;1.30;;;0.40;99.90;;;;;;5067141;28;20045;-78
2022/04/03 04:37:37;;;;;;;;;;;0.40;99.90;;;;;;5028433;28;20372;-78
2022/04/03 04:40:05;;;;;;;1.85;1.40;;;0.60;99.90;;;;;;5036485;28;19959;-78
2022/04/03 04:42:34;;;;;;;1.13;1.05;;;0.40;99.90;;;;;;5066697;28;20036;-77
2022/04/03 04:44:59;;;;;;;1.40;1.30;;;0.20;99.90;;;;;;5038259;28;20359;-78
2022/04/03 04:47:25;;;;;;;1.25;1.15;;;0.20;99.90;;;;;;5051184;28;20114;-78
2022/04/03 04:49:53;;;;;;;1.30;1.20;;;0.20;99.90;;;;;;5034204;28;20044;-79
2022/04/03 04:52:19;;;;;;;1.73;1.63;;;0.20;99.90;;;;;;5040807;28;20037;-79
2022/04/03 04:54:45;;;;;;;1.65;1.55;;;0.20;99.90;;;;;;5035951;28;20040;-79
2022/04/03 04:57:10;;;;;;;1.38;1.27;;;0.10;99.90;;;;;;5031386;28;20063;-79
2022/04/03 04:59:36;;;;;;;1.30;1.20;;;0.30;99.90;;;;;;5035261;28;20092;-79
2022/04/03 05:02:05;;;;;;;2.92;1.90;;;0.70;99.90;;;;;;5019347;28;20051;-77
2022/04/03 05:04:30;;;;;;;1.65;1.52;;;0.40;99.90;;;;;;5040021;28;20116;-79
2022/04/03 05:06:57;;;;;;;1.30;1.20;;;0.30;99.90;;;;;;5054945;28;20510;-80
2022/04/03 05:09:25;;;;;;;1.48;1.38;;;0.70;99.90;;;;;;5052776;28;20052;-79
2022/04/03 05:11:52;;;;;;;3.08;1.45;;;-0.20;99.90;;;;;;5055051;28;20486;-78
2022/04/03 05:14:22;;;;;;;2.13;1.92;;;-0.20;99.90;;;;;;5074210;28;20422;-79
2022/04/03 05:16:48;;;;;;;1.50;1.40;;;-0.20;99.90;;;;;;5036751;28;20043;-80
2022/04/03 05:19:15;;;;;;;1.13;1.05;;;0.40;99.90;;;;;;5040098;28;20559;-79
2022/04/03 05:21:42;;;;;;;1.30;0.90;;;0.10;99.90;;;;;;5055369;28;20593;-78
2022/04/03 05:24:08;;;;;;;1.33;1.23;;;0.20;99.90;;;;;;5072366;28;20791;-79
2022/04/03 05:26:34;;;;;;;2.20;2.00;;;0.30;99.90;;;;;;5033820;28;20037;-79
2022/04/03 05:28:59;;;;;;;2.47;1.70;;;0.40;99.90;;;;;;5058577;28;20039;-78
2022/04/03 05:31:32;;;;;;;1.55;1.30;;;0.50;99.90;;;;;;5055856;28;20118;-79
2022/04/03 05:33:58;;;;;;;2.47;1.73;;;0.60;99.90;;;;;;5051131;28;20490;-79
2022/04/03 05:36:25;;;;;;;1.35;1.20;;;0.70;99.90;;;;;;5063482;28;20131;-80
2022/04/03 05:38:52;;;;;;;1.45;1.35;;;0.70;99.90;;;;;;5038693;28;20043;-77
2022/04/03 05:41:18;;;;;;;1.52;1.38;;;0.80;99.90;;;;;;5019807;28;20091;-79
2022/04/03 05:43:44;;;;;;;;;;;0.80;99.90;;;;;;5085194;28;20043;-79
2022/04/03 05:46:10;;;;;;;1.73;1.63;;;0.80;99.90;;;;;;5049881;28;19916;-78
2022/04/03 05:48:36;;;;;;;1.58;1.48;;;1.50;99.90;;;;;;5021099;28;20051;-78
2022/04/03 05:51:02;;;;;;;;;;;0.80;99.90;;;;;;5034793;28;20076;-79
2022/04/03 05:53:28;;;;;;;1.65;1.55;;;0.90;99.90;;;;;;5040553;28;20042;-81
2022/04/03 05:55:55;;;;;;;1.67;1.48;;;1.00;99.90;;;;;;5066659;28;20091;-80
2022/04/03 05:58:24;;;;;;;1.70;1.60;;;1.00;99.90;;;;;;5037237;28;20101;-79
2022/04/03 06:00:49;;;;;;;;;;;1.10;99.90;;;;;;5045878;28;20052;-78
2022/04/03 06:03:15;;;;;;;1.58;1.48;;;1.20;99.90;;;;;;5048724;28;19921;-79
2022/04/03 06:05:42;;;;;;;1.90;1.60;;;1.40;99.90;;;;;;5017394;28;20509;-80
2022/04/03 06:08:08;;;;;;;1.40;1.30;;;2.60;99.90;;;;;;5054333;28;20083;-79
2022/04/03 06:10:39;;;;;;;2.00;1.58;;;1.60;99.90;;;;;;5057860;28;20045;-78
2022/04/03 06:13:08;;;;;;;2.42;1.73;;;2.00;99.90;;;;;;5071851;28;20036;-77
2022/04/03 06:15:40;;;;;;;1.45;1.35;;;1.70;99.90;;;;;;5072005;28;20063;-78
2022/04/03 06:18:24;;;;;;;1.77;1.50;;;1.80;99.90;;;;;;5070455;28;20058;-80
2022/04/03 06:20:51;;;;;;;1.48;1.38;;;1.80;99.90;;;;;;5037982;28;20036;-78
2022/04/03 06:23:17;;;;;;;;;;;1.90;99.90;;;;;;5054402;28;20386;-77
2022/04/03 06:25:44;;;;;;;4.32;1.40;;;1.90;99.90;;;;;;5057674;28;20015;-79
2022/04/03 06:28:10;;;;;;;1.20;1.10;;;1.80;99.90;;;;;;5045226;28;20409;-78
2022/04/03 06:30:36;;;;;;;2.75;1.67;;;1.80;99.90;;;;;;5077557;28;20048;-78
2022/04/03 06:33:03;;;;;;;0.82;0.82;;;1.70;99.90;;;;;;5070071;28;20044;-80
2022/04/03 06:35:29;;;;;;;2.70;1.75;;;1.60;99.90;;;;;;5069602;28;20071;-78
2022/04/03 06:37:56;;;;;;;1.50;1.40;;;1.60;99.90;;;;;;5059864;28;20063;-79
2022/04/03 06:40:23;;;;;;;1.55;1.45;;;1.60;99.90;;;;;;5081009;28;20111;-79
2022/04/03 06:42:50;;;;;;;0.85;0.85;;;2.10;99.90;;;;;;5070855;28;20044;-80
2022/04/03 06:45:16;;;;;;;2.30;1.55;;;1.80;99.90;;;;;;5029325;28;20481;-80
2022/04/03 06:47:41;;;;;;;;;;;1.80;99.90;;;;;;5052074;28;20036;-77
2022/04/03 06:50:08;;;;;;;1.00;1.00;;;1.90;99.90;;;;;;5086634;28;20082;-81
2022/04/03 06:52:34;;;;;;;1.20;1.10;;;2.00;99.90;;;;;;5069855;28;20044;-79
2022/04/03 06:55:00;;;;;;;1.65;1.45;;;2.10;99.90;;;;;;5055384;28;20036;-79
2022/04/03 06:57:26;;;;;;;1.08;0.98;;;3.30;99.90;;;;;;5028390;28;20443;-80
2022/04/03 06:59:52;;;;;;;1.10;1.00;;;2.40;99.90;;;;;;5033005;28;20123;-81
2022/04/03 07:02:18;;;;;;;1.13;1.05;;;2.60;99.90;;;;;;5061217;28;20082;-77
2022/04/03 07:04:44;;;;;;;8.48;1.63;;;2.70;99.90;;;;;;5054099;28;20119;-77
2022/04/03 07:07:10;;;;;;;2.15;1.70;;;2.80;99.90;;;;;;5033316;28;20131;-78
2022/04/03 07:09:39;;;;;;;;;;;2.90;99.90;;;;;;5055740;28;20037;-79
2022/04/03 07:12:07;;;;;;;1.08;0.88;;;3.10;99.90;;;;;;5069221;28;19923;-78
2022/04/03 07:14:32;;;;;;;2.60;1.00;;;3.20;99.90;;;;;;5061793;28;20036;-78
2022/04/03 07:16:58;;;;;;;1.33;1.23;;;3.40;99.90;;;;;;5054817;28;20048;-76
2022/04/03 07:19:25;;;;;;;1.00;1.00;;;3.50;99.90;;;;;;5044832;28;20377;-76
2022/04/03 07:21:50;;;;;;;1.30;1.17;;;3.60;99.90;;;;;;5067123;28;20046;-77
2022/04/03 07:24:17;;;;;;;0.90;0.90;;;3.80;99.90;;;;;;5069584;28;20115;-77
2022/04/03 07:26:43;;;;;;;1.98;1.17;;;4.20;99.90;;;;;;5036816;28;20040;-77
2022/04/03 07:29:09;;;;;;;1.42;1.33;;;4.10;99.90;;;;;;5071499;28;20489;-76
2022/04/03 07:31:35;;;;;;;7.90;1.08;;;4.20;99.90;;;;;;5048015;28;20054;-76
2022/04/03 07:34:00;;;;;;;1.08;0.98;;;4.20;99.90;;;;;;5042332;28;20074;-78
2022/04/03 07:36:26;;;;;;;0.85;0.85;;;4.20;99.90;;;;;;5037162;28;20036;-77
2022/04/03 07:38:52;;;;;;;;;;;4.30;99.90;;;;;;5074417;28;20059;-76
2022/04/03 07:41:19;;;;;;;0.70;0.70;;;4.30;99.90;;;;;;5081449;28;20383;-78
2022/04/03 07:43:45;;;;;;;0.70;0.70;;;4.30;99.90;;;;;;5048986;28;20041;-78
2022/04/03 07:46:16;;;;;;;1.08;0.80;;;4.40;99.90;;;;;;5068682;28;20041;-78
2022/04/03 07:48:47;;;;;;;1.02;0.85;;;4.40;99.90;;;;;;5051959;28;20036;-77
2022/04/03 07:51:13;;;;;;;0.80;0.80;;;4.50;99.90;;;;;;5052900;28;20037;-77
2022/04/03 07:53:40;;;;;;;1.27;1.08;;;4.60;99.90;;;;;;5033935;28;20037;-77
2022/04/03 07:56:14;;;;;;;1.13;1.02;;;4.80;99.90;;;;;;5050199;28;20174;-78
2022/04/03 07:58:46;;;;;;;0.82;0.82;;;4.90;99.90;;;;;;5047436;28;20108;-77
2022/04/03 08:01:12;;;;;;;0.88;0.88;;;5.10;99.90;;;;;;5031847;28;20549;-78
2022/04/03 08:03:38;;;;;;;2.80;0.88;;;5.20;99.90;;;;;;5071022;28;20043;-78
2022/04/03 08:06:10;;;;;;;0.90;0.90;;;5.30;99.90;;;;;;5068997;28;20192;-78
2022/04/03 08:08:36;;;;;;;1.40;1.30;;;5.40;99.90;;;;;;5043538;28;20076;-76
2022/04/03 08:11:02;;;;;;;0.85;0.85;;;5.50;99.90;;;;;;5036510;28;20044;-77
2022/04/03 08:13:28;;;;;;;0.93;0.93;;;5.60;99.90;;;;;;5052855;28;20040;-79
2022/04/03 08:15:55;;;;;;;0.52;0.52;;;5.60;99.90;;;;;;5035828;28;20051;-78
2022/04/03 08:18:25;;;;;;;3.03;1.88;;;5.70;99.90;;;;;;5065243;28;20445;-78
2022/04/03 08:20:51;;;;;;;1.98;1.65;;;5.80;99.90;;;;;;5042846;28;20044;-76
2022/04/03 08:23:16;;;;;;;;;;;6.00;99.90;;;;;;5052056;28;20044;-78
2022/04/03 08:25:45;;;;;;;4.35;1.20;;;6.10;99.90;;;;;;5052972;28;19920;-77
2022/04/03 08:28:11;;;;;;;0.73;0.73;;;6.10;99.90;;;;;;5052736;28;20115;-77
2022/04/03 08:30:43;;;;;;;0.88;0.88;;;6.10;99.90;;;;;;5079982;28;20047;-77
2022/04/03 08:33:10;;;;;;;0.70;0.70;;;6.00;99.90;;;;;;5057813;28;20806;-77
2022/04/03 08:35:40;;;;;;;1.15;1.05;;;6.00;99.90;;;;;;5053282;28;20078;-80
2022/04/03 08:38:09;;;;;;;0.85;0.65;;;5.80;99.90;;;;;;5050867;28;20053;-80
2022/04/03 08:40:36;;;;;;;0.70;0.70;;;5.80;99.90;;;;;;5056837;28;20075;-79
2022/04/03 08:43:03;;;;;;;0.80;0.80;;;5.90;99.90;;;;;;5060984;28;20135;-79
2022/04/03 08:45:30;;;;;;;0.80;0.80;;;6.00;99.90;;;;;;5045957;28;20044;-80
2022/04/03 08:47:58;;;;;;;0.95;0.90;;;6.10;99.90;;;;;;5066417;28;20509;-79
2022/04/03 08:50:28;;;;;;;0.50;0.50;;;6.30;99.90;;;;;;5052785;28;20053;-79
2022/04/03 08:52:59;;;;;;;0.70;0.70;;;6.90;99.90;;;;;;5074356;28;20056;-78
2022/04/03 08:55:25;;;;;;;0.60;0.60;;;6.60;99.90;;;;;;5048972;28;20547;-81
2022/04/03 08:57:53;;;;;;;0.98;0.88;;;6.90;99.90;;;;;;5074886;28;20072;-83
2022/04/03 09:00:20;;;;;;;1.17;1.08;;;7.20;99.90;;;;;;5056585;28;20436;-82
2022/04/03 09:02:46;;;;;;;0.40;0.40;;;7.50;99.90;;;;;;5076776;28;20312;-82
2022/04/03 09:05:14;;;;;;;1.63;0.70;;;7.50;99.90;;;;;;5079818;28;20052;-82
2022/04/03 09:07:42;;;;;;;0.65;0.65;;;7.40;99.90;;;;;;5057518;28;20108;-81
2022/04/03 09:10:13;;;;;;;0.30;0.30;;;7.10;99.90;;;;;;5056348;28;20048;-81
2022/04/03 09:12:47;;;;;;;0.60;0.60;;;6.80;99.90;;;;;;5085148;28;20045;-81
2022/04/03 09:15:18;;;;;;;0.50;0.50;;;6.50;99.90;;;;;;5051353;28;20048;-80
2022/04/03 09:17:59;;;;;;;0.40;0.40;;;6.30;99.90;;;;;;5072898;28;20044;-83
2022/04/03 09:20:32;;;;;;;0.55;0.55;;;6.30;99.90;;;;;;5073757;28;20059;-83
2022/04/03 09:23:04;;;;;;;0.38;0.38;;;6.40;99.90;;;;;;5085206;28;20044;-82
2022/04/03 09:25:34;;;;;;;0.52;0.52;;;6.70;99.90;;;;;;5079992;28;20505;-85
2022/04/03 09:28:05;;;;;;;0.50;0.50;;;7.00;99.90;;;;;;5062451;28;20045;-82
2022/04/03 09:30:39;;;;;;;0.40;0.40;;;7.30;99.90;;;;;;5073247;28;20044;-79
2022/04/03 09:33:07;;;;;;;0.50;0.50;;;7.40;99.90;;;;;;5053470;28;20458;-79
2022/04/03 09:35:53;;;;;;;0.75;0.75;;;7.60;99.90;;;;;;5068640;28;20048;-80
2022/04/03 09:38:19;;;;;;;0.38;0.38;;;7.80;99.90;;;;;;5047558;28;20052;-80
2022/04/03 09:40:50;;;;;;;0.60;0.60;;;7.70;99.90;;;;;;5043426;28;20036;-79
2022/04/03 09:43:21;;;;;;;1.17;0.70;;;7.50;99.90;;;;;;5069974;28;20074;-81
2022/04/03 09:46:10;;;;;;;0.40;0.40;;;7.30;99.90;;;;;;5066115;28;20047;-85
2022/04/03 09:48:55;;;;;;;0.50;0.50;;;7.30;99.90;;;;;;5072895;28;20032;-84
2022/04/03 09:51:22;;;;;;;0.40;0.40;;;7.30;99.90;;;;;;5070695;28;20036;-82
2022/04/03 09:53:50;;;;;;;0.60;0.60;;;7.30;99.90;;;;;;5040963;28;20150;-82
2022/04/03 09:56:25;;;;;;;0.98;0.60;;;7.50;99.90;;;;;;5067631;28;20048;-81
2022/04/03 09:59:03;;;;;;;1.75;0.80;;;7.90;99.90;;;;;;5059676;28;20366;-85
2022/04/03 10:01:40;;;;;;;0.50;0.50;;;7.90;99.90;;;;;;5067862;28;20041;-81
2022/04/03 10:04:14;;;;;;;0.65;0.65;;;8.00;99.90;;;;;;5070849;28;20098;-83
2022/04/03 10:06:42;;;;;;;0.70;0.70;;;8.10;99.90;;;;;;5070204;28;20503;-82
2022/04/03 10:09:11;;;;;;;0.50;0.50;;;7.40;99.90;;;;;;5060240;28;20153;-82
2022/04/03 10:11:38;;;;;;;0.50;0.50;;;8.20;99.90;;;;;;5054646;28;20490;-82
2022/04/03 10:14:07;;;;;;;1.35;1.25;;;8.20;99.90;;;;;;5055091;28;20037;-84
2022/04/03 10:16:34;;;;;;;0.57;0.57;;;8.00;99.90;;;;;;5036748;28;20091;-84
2022/04/03 10:19:00;;;;;;;2.03;1.30;;;7.90;99.90;;;;;;5050460;28;20123;-80
2022/04/03 10:21:50;;;;;;;0.70;0.70;;;7.60;99.90;;;;;;5040186;28;20055;-81
2022/04/03 10:24:19;;;;;;;0.32;0.32;;;7.30;99.90;;;;;;5043916;28;20106;-83
2022/04/03 10:27:04;;;;;;;0.55;0.55;;;7.40;99.90;;;;;;5078203;28;20029;-83
2022/04/03 10:29:43;;;;;;;0.80;0.80;;;7.60;99.90;;;;;;5050528;28;20116;-82
2022/04/03 10:32:20;;;;;;;0.65;0.65;;;8.80;99.90;;;;;;5056390;28;20157;-81
2022/04/03 10:34:51;;;;;;;1.55;0.70;;;8.10;99.90;;;;;;5054302;28;20375;-83
2022/04/03 10:37:26;;;;;;;1.08;1.02;;;8.60;99.90;;;;;;5057843;28;20858;-84
2022/04/03 10:39:54;;;;;;;0.73;0.70;;;8.80;99.90;;;;;;5043749;28;20116;-85
2022/04/03 10:42:25;;;;;;;1.55;0.65;;;8.90;99.90;;;;;;5063532;28;20041;-82
2022/04/03 10:45:20;;;;;;;0.43;0.43;;;9.00;99.90;;;;;;5034839;28;20099;-84
2022/04/03 10:47:48;;;;;;;0.70;0.70;;;8.70;99.90;;;;;;5034250;28;20060;-81
2022/04/03 10:50:15;;;;;;;0.80;0.80;;;8.30;99.90;;;;;;5077709;28;20051;-83
2022/04/03 10:52:44;;;;;;;0.63;0.63;;;7.70;99.90;;;;;;5053581;28;20044;-83
2022/04/03 10:55:19;;;;;;;0.90;0.73;;;7.10;99.90;;;;;;5074274;28;20098;-80
2022/04/03 10:58:06;;;;;;;0.55;0.55;;;6.60;99.90;;;;;;5069175;28;20049;-78
2022/04/03 11:00:34;;;;;;;0.40;0.40;;;6.30;99.90;;;;;;5064040;28;20557;-82
2022/04/03 11:03:24;;;;;;;0.68;0.68;;;6.20;99.90;;;;;;5051979;28;20045;-80
2022/04/03 11:05:51;;;;;;;0.63;0.63;;;4.80;99.90;;;;;;5055055;28;20060;-82
2022/04/03 11:08:18;;;;;;;0.43;0.43;;;6.60;99.90;;;;;;5039278;28;20053;-79
2022/04/03 11:10:48;;;;;;;0.70;0.70;;;6.50;99.90;;;;;;5063544;28;20045;-80
2022/04/03 11:13:36;;;;;;;0.60;0.60;;;7.00;99.90;;;;;;5036777;28;20041;-81
2022/04/03 11:16:22;;;;;;;0.50;0.50;;;6.50;99.90;;;;;;5052020;28;20126;-81
2022/04/03 11:18:54;;;;;;;0.60;0.60;;;7.90;99.90;;;;;;5081335;28;20041;-82
2022/04/03 11:21:33;;;;;;;0.50;0.50;;;7.40;99.90;;;;;;5064354;28;20036;-82
2022/04/03 11:24:03;;;;;;;0.55;0.55;;;7.40;99.90;;;;;;5084444;28;20037;-82
2022/04/03 11:26:30;;;;;;;1.05;1.05;;;7.50;99.90;;;;;;5055629;28;20041;-86
2022/04/03 11:29:06;;;;;;;0.47;0.47;;;7.30;99.90;;;;;;5042865;28;20055;-83
2022/04/03 11:31:34;;;;;;;0.65;0.65;;;7.30;99.90;;;;;;5037480;28;20045;-84
2022/04/03 11:34:01;;;;;;;0.98;0.88;;;7.30;99.90;;;;;;5049888;28;20040;-81
2022/04/03 11:36:52;;;;;;;2.22;2.03;;;7.50;99.90;;;;;;5037665;28;20051;-84
2022/04/03 11:39:29;;;;;;;1.23;0.90;;;7.40;99.90;;;;;;5045326;28;20048;-84
2022/04/03 11:42:13;;;;;;;0.60;0.60;;;7.60;99.90;;;;;;5057876;28;20124;-85
2022/04/03 11:44:53;;;;;;;0.73;0.73;;;7.60;99.90;;;;;;5064171;28;20051;-79
2022/04/03 11:47:28;;;;;;;2.40;0.60;;;7.80;99.90;;;;;;5062484;28;20029;-84
2022/04/03 11:50:23;;;;;;;0.57;0.57;;;7.90;99.90;;;;;;5062533;28;20478;-80
2022/04/03 11:52:49;;;;;;;1.02;0.93;;;7.80;99.90;;;;;;5033192;28;20087;-79
2022/04/03 11:55:15;;;;;;;0.73;0.73;;;8.90;99.90;;;;;;5049108;28;20128;-83
2022/04/03 11:57:42;;;;;;;0.60;0.60;;;8.30;99.90;;;;;;5038276;28;20052;-82
2022/04/03 12:00:09;;;;;;;0.85;0.85;;;8.10;99.90;;;;;;5060894;28;20040;-81
2022/04/03 12:02:35;;;;;;;0.82;0.82;;;7.90;99.90;;;;;;5072315;28;20045;-82
2022/04/03 12:05:02;;;;;;;0.55;0.55;;;7.90;99.90;;;;;;5074298;28;20043;-79
2022/04/03 12:07:28;;;;;;;0.50;0.50;;;7.70;99.90;;;;;;5057241;28;20114;-82
2022/04/03 12:09:53;;;;;;;2.38;1.17;;;8.50;99.90;;;;;;5058858;28;20048;-81
2022/04/03 12:12:25;;;;;;;3.72;0.60;;;8.60;99.90;;;;;;5062856;28;20050;-76
2022/04/03 12:14:51;;;;;;;2.20;1.17;;;8.30;99.90;;;;;;5070197;28;20611;-78
2022/04/03 12:17:18;;;;;;;1.05;1.00;;;8.10;99.90;;;;;;5074155;28;20216;-78
2022/04/03 12:19:51;;;;;;;0.70;0.70;;;7.90;99.90;;;;;;5084241;28;20055;-76
2022/04/03 12:22:19;;;;;;;1.52;1.42;;;7.70;99.90;;;;;;5073659;28;20089;-83
2022/04/03 12:27:33;;;;;;;1.15;1.08;;;7.60;99.90;;;;;;5070632;28;20047;-81
2022/04/03 12:29:59;;;;;;;0.93;0.90;;;;;;;;;;5076956;28;20050;-85
2022/04/03 12:32:35;;;;;;;0.65;0.65;;;7.50;99.90;;;;;;5048628;28;20044;-82
2022/04/03 12:35:30;;;;;;;0.47;0.47;;;7.40;99.90;;;;;;5070727;28;20411;-83
2022/04/03 12:37:57;;;;;;;2.10;1.05;;;7.60;99.90;;;;;;5058758;28;20056;-82
2022/04/03 12:40:23;;;;;;;2.28;1.20;;;7.50;99.90;;;;;;5044897;28;20083;-82
2022/04/03 12:42:49;;;;;;;1.15;0.98;;;7.60;99.90;;;;;;5058709;28;20059;-80
2022/04/03 12:45:20;;;;;;;2.00;1.40;;;7.50;99.90;;;;;;5057836;28;20040;-82
2022/04/03 12:48:03;;;;;;;1.85;0.88;;;7.50;99.90;;;;;;5075718;28;20043;-82
2022/04/03 12:50:41;;;;;;;0.98;0.90;;;7.50;99.90;;;;;;5067815;28;20751;-81
2022/04/03 12:53:15;;;;;;;0.60;0.60;;;7.50;99.90;;;;;;5088236;28;20044;-82
2022/04/03 12:55:52;;;;;;;1.45;1.05;;;7.50;99.90;;;;;;5064872;28;20214;-82
2022/04/03 12:58:27;;;;;;;1.50;0.95;;;7.80;99.90;;;;;;5068631;28;20126;-83
2022/04/03 13:00:54;;;;;;;1.30;1.17;;;7.70;99.90;;;;;;5083583;28;20092;-84
2022/04/03 13:03:29;;;;;;;0.93;0.82;;;8.20;99.90;;;;;;5056343;28;20048;-79
2022/04/03 13:06:25;;;;;;;1.08;0.98;;;8.70;99.90;;;;;;5064102;28;20048;-86
2022/04/03 13:08:56;;;;;;;2.30;1.05;;;8.00;99.90;;;;;;5064515;28;20063;-82
2022/04/03 13:11:43;;;;;;;0.73;0.73;;;9.40;99.90;;;;;;5074584;28;20040;-84